createdAt,value
2023-05-09T00:02:00.268Z,12.64
2023-05-09T00:04:26.870Z,12.70
2023-05-09T00:06:53.404Z,12.69
2023-05-09T00:09:19.906Z,12.63
2023-05-09T00:11:46.456Z,12.61
2023-05-09T00:14:13.901Z,12.67
2023-05-09T00:16:40.797Z,12.55
2023-05-09T00:19:07.497Z,12.62
2023-05-09T00:21:34.189Z,12.60
2023-05-09T00:24:01.072Z,12.56
2023-05-09T00:26:27.814Z,12.62
2023-05-09T00:28:54.294Z,12.51
2023-05-09T00:31:21.157Z,12.45
2023-05-09T00:33:47.630Z,12.39
2023-05-09T00:36:14.089Z,12.30
2023-05-09T00:38:40.614Z,12.39
2023-05-09T00:41:07.086Z,12.42
2023-05-09T00:43:33.886Z,12.39
2023-05-09T00:46:00.413Z,12.39
2023-05-09T00:48:26.942Z,12.39
2023-05-09T00:50:53.479Z,12.29
2023-05-09T00:53:20.687Z,12.13
2023-05-09T00:55:47.242Z,12.14
2023-05-09T00:58:13.854Z,12.10
2023-05-09T01:00:40.690Z,12.14
2023-05-09T01:03:07.362Z,12.06
2023-05-09T01:05:40.882Z,12.06
2023-05-09T01:08:10.795Z,12.05
2023-05-09T01:10:48.262Z,11.96
2023-05-09T01:13:29.934Z,12.05
2023-05-09T01:15:56.260Z,11.94
2023-05-09T01:18:46.037Z,11.86
2023-05-09T01:21:16.181Z,11.77
2023-05-09T01:23:45.494Z,11.80
2023-05-09T01:26:32.877Z,11.73
2023-05-09T01:29:32.436Z,11.71
2023-05-09T01:31:59.496Z,11.65
2023-05-09T01:34:26.835Z,11.60
2023-05-09T01:36:55.834Z,11.61
2023-05-09T01:39:22.412Z,11.63
2023-05-09T01:41:49.722Z,11.65
2023-05-09T01:44:16.363Z,11.61
2023-05-09T01:46:43.066Z,11.56
2023-05-09T01:49:09.742Z,11.52
2023-05-09T01:51:36.725Z,11.54
2023-05-09T01:54:03.183Z,11.52
2023-05-09T01:56:29.645Z,11.53
2023-05-09T01:58:56.198Z,11.42
2023-05-09T02:01:22.714Z,11.41
2023-05-09T02:03:52.436Z,11.52
2023-05-09T02:06:20.712Z,11.44
2023-05-09T02:08:47.242Z,11.39
2023-05-09T02:11:13.699Z,11.42
2023-05-09T02:13:40.170Z,11.35
2023-05-09T02:16:07.779Z,11.42
2023-05-09T02:18:35.389Z,11.54
2023-05-09T02:21:02.226Z,11.47
2023-05-09T02:23:28.722Z,11.36
2023-05-09T02:25:55.204Z,11.30
2023-05-09T02:28:22.861Z,10.98
2023-05-09T02:30:49.835Z,10.77
2023-05-09T02:33:16.612Z,10.65
2023-05-09T02:35:44.958Z,10.96
2023-05-09T02:38:11.695Z,10.85
2023-05-09T02:40:38.158Z,10.75
2023-05-09T02:43:04.629Z,10.84
2023-05-09T02:45:31.200Z,10.93
2023-05-09T02:47:57.681Z,11.05
2023-05-09T02:50:24.211Z,11.11
2023-05-09T02:52:50.809Z,11.11
2023-05-09T02:55:17.491Z,11.17
2023-05-09T02:57:44.226Z,11.28
2023-05-09T03:00:11.545Z,11.29
2023-05-09T03:02:38.233Z,11.41
2023-05-09T03:05:05.095Z,11.49
2023-05-09T03:07:31.561Z,11.51
2023-05-09T03:09:58.023Z,11.60
2023-05-09T03:12:24.526Z,11.65
2023-05-09T03:14:51.009Z,11.68
2023-05-09T03:17:21.143Z,11.72
2023-05-09T03:19:48.309Z,11.75
2023-05-09T03:22:15.039Z,11.82
2023-05-09T03:24:41.525Z,11.88
2023-05-09T03:27:08.022Z,11.88
2023-05-09T03:29:34.502Z,11.91
2023-05-09T03:32:00.993Z,12.02
2023-05-09T03:34:27.465Z,12.00
2023-05-09T03:36:53.937Z,12.01
2023-05-09T03:39:20.481Z,12.00
2023-05-09T03:41:46.966Z,11.98
2023-05-09T03:44:13.431Z,11.98
2023-05-09T03:46:39.996Z,12.01
2023-05-09T03:49:06.503Z,12.07
2023-05-09T03:51:32.977Z,12.15
2023-05-09T03:53:59.872Z,12.23
2023-05-09T03:56:26.739Z,12.40
2023-05-09T03:58:53.219Z,12.40
2023-05-09T04:01:19.697Z,12.54
2023-05-09T04:03:46.269Z,12.53
2023-05-09T04:06:12.853Z,12.47
2023-05-09T04:08:39.343Z,12.51
2023-05-09T04:11:06.093Z,12.50
2023-05-09T04:13:33.695Z,12.49
2023-05-09T04:16:00.203Z,12.52
2023-05-09T04:18:26.722Z,12.58
2023-05-09T04:20:53.521Z,12.65
2023-05-09T04:23:20.010Z,12.92
2023-05-09T04:25:46.511Z,13.06
2023-05-09T04:28:12.978Z,13.06
2023-05-09T04:30:39.483Z,12.92
2023-05-09T04:33:06.250Z,12.93
2023-05-09T04:35:32.796Z,12.88
2023-05-09T04:37:59.261Z,12.89
2023-05-09T04:40:27.064Z,13.00
2023-05-09T04:42:53.648Z,13.16
2023-05-09T04:45:20.194Z,13.50
2023-05-09T04:47:46.731Z,13.74
2023-05-09T04:50:13.420Z,14.11
2023-05-09T04:52:39.946Z,14.21
2023-05-09T04:55:06.924Z,14.45
2023-05-09T04:57:33.455Z,14.60
2023-05-09T04:59:59.955Z,14.74
2023-05-09T05:02:26.462Z,14.86
2023-05-09T05:05:00.125Z,15.02
2023-05-09T05:07:33.015Z,15.01
2023-05-09T05:09:59.501Z,15.23
2023-05-09T05:12:25.969Z,15.31
2023-05-09T05:14:52.820Z,15.30
2023-05-09T05:17:19.352Z,15.17
2023-05-09T05:19:45.826Z,15.07
2023-05-09T05:22:12.312Z,15.01
2023-05-09T05:24:38.777Z,15.17
2023-05-09T05:27:05.248Z,15.25
2023-05-09T05:29:32.028Z,15.11
2023-05-09T05:31:58.568Z,15.01
2023-05-09T05:34:25.075Z,14.94
2023-05-09T05:36:51.820Z,14.77
2023-05-09T05:39:18.293Z,14.76
2023-05-09T05:41:44.788Z,14.52
2023-05-09T05:44:11.260Z,14.43
2023-05-09T05:46:37.751Z,14.49
2023-05-09T05:49:04.281Z,14.48
2023-05-09T05:51:31.377Z,14.67
2023-05-09T05:53:57.889Z,14.97
2023-05-09T05:56:24.365Z,15.05
2023-05-09T05:58:50.902Z,15.07
2023-05-09T06:01:17.387Z,15.16
2023-05-09T06:03:44.162Z,15.35
2023-05-09T06:06:10.873Z,15.69
2023-05-09T06:08:37.362Z,16.00
2023-05-09T06:11:05.784Z,16.11
2023-05-09T06:13:32.283Z,16.01
2023-05-09T06:16:07.769Z,16.00
2023-05-09T06:18:39.965Z,16.10
2023-05-09T06:21:06.774Z,16.04
2023-05-09T06:23:33.291Z,15.84
2023-05-09T06:25:59.798Z,15.86
2023-05-09T06:28:26.905Z,16.04
2023-05-09T06:30:53.414Z,16.38
2023-05-09T06:33:19.923Z,16.59
2023-05-09T06:35:46.422Z,16.73
2023-05-09T06:38:12.975Z,16.96
2023-05-09T06:40:39.475Z,16.95
2023-05-09T06:43:06.442Z,17.05
2023-05-09T06:45:32.947Z,17.03
2023-05-09T06:47:59.731Z,17.10
2023-05-09T06:50:26.429Z,17.21
2023-05-09T06:52:52.909Z,17.28
2023-05-09T06:55:19.395Z,17.45
2023-05-09T06:57:45.895Z,17.73
2023-05-09T07:00:12.983Z,17.85
2023-05-09T07:02:42.009Z,17.32
2023-05-09T07:05:09.943Z,17.38
2023-05-09T07:07:36.466Z,17.64
2023-05-09T07:10:11.146Z,17.58
2023-05-09T07:12:38.801Z,17.67
2023-05-09T07:15:06.387Z,17.78
2023-05-09T07:17:32.909Z,17.40
2023-05-09T07:19:59.422Z,17.34
2023-05-09T07:22:26.004Z,17.61
2023-05-09T07:24:52.588Z,17.85
2023-05-09T07:27:19.139Z,18.13
2023-05-09T07:29:45.696Z,18.55
2023-05-09T07:32:12.251Z,18.80
2023-05-09T07:34:38.783Z,19.12
2023-05-09T07:37:05.275Z,19.21
2023-05-09T07:39:32.055Z,19.24
2023-05-09T07:41:58.642Z,19.24
2023-05-09T07:44:25.261Z,19.11
2023-05-09T07:46:51.747Z,18.90
2023-05-09T07:49:18.349Z,19.09
2023-05-09T07:51:44.857Z,19.42
2023-05-09T07:54:11.329Z,19.22
2023-05-09T07:56:37.810Z,19.54
2023-05-09T07:59:04.284Z,19.98
2023-05-09T08:01:30.834Z,19.59
2023-05-09T08:03:57.420Z,19.34
2023-05-09T08:06:23.997Z,19.22
2023-05-09T08:08:50.602Z,19.37
2023-05-09T08:11:17.426Z,19.42
2023-05-09T08:13:44.014Z,19.41
2023-05-09T08:16:10.706Z,19.24
2023-05-09T08:18:37.194Z,19.36
2023-05-09T08:21:03.782Z,19.57
2023-05-09T08:23:30.385Z,19.38
2023-05-09T08:25:57.309Z,18.71
2023-05-09T08:28:24.230Z,18.88
2023-05-09T08:30:51.562Z,18.99
2023-05-09T08:33:18.057Z,19.49
2023-05-09T08:35:44.544Z,19.57
2023-05-09T08:38:11.342Z,19.28
2023-05-09T08:40:37.953Z,19.02
2023-05-09T08:43:07.346Z,19.00
2023-05-09T08:45:35.874Z,18.94
2023-05-09T08:48:06.568Z,19.06
2023-05-09T08:50:33.225Z,18.62
2023-05-09T08:52:59.717Z,18.60
2023-05-09T08:55:26.291Z,18.59
2023-05-09T08:57:52.801Z,18.91
2023-05-09T09:00:21.007Z,19.33
2023-05-09T09:02:47.984Z,19.75
2023-05-09T09:05:34.209Z,19.82
2023-05-09T09:08:01.047Z,19.67
2023-05-09T09:10:28.899Z,19.95
2023-05-09T09:12:57.275Z,19.57
2023-05-09T09:15:24.231Z,19.42
2023-05-09T09:17:51.435Z,19.72
2023-05-09T09:20:18.511Z,19.71
2023-05-09T09:22:45.058Z,19.62
2023-05-09T09:25:11.643Z,19.74
2023-05-09T09:27:38.136Z,19.82
2023-05-09T09:30:11.414Z,20.13
2023-05-09T09:32:38.576Z,20.17
2023-05-09T09:35:06.999Z,20.35
2023-05-09T09:37:37.388Z,20.23
2023-05-09T09:40:05.143Z,20.16
2023-05-09T09:42:46.775Z,20.72
2023-05-09T09:45:15.389Z,20.49
2023-05-09T09:47:43.156Z,20.74
2023-05-09T09:50:14.124Z,20.96
2023-05-09T09:52:53.084Z,21.06
2023-05-09T09:55:20.214Z,21.01
2023-05-09T09:57:48.068Z,20.82
2023-05-09T10:00:16.734Z,21.04
2023-05-09T10:02:50.723Z,20.95
2023-05-09T10:05:24.469Z,21.11
2023-05-09T10:07:53.734Z,21.53
2023-05-09T10:10:20.529Z,21.13
2023-05-09T10:12:47.023Z,20.85
2023-05-09T10:15:13.533Z,20.80
2023-05-09T10:17:40.222Z,20.67
2023-05-09T10:20:07.259Z,21.29
2023-05-09T10:22:34.215Z,21.72
2023-05-09T10:25:05.595Z,21.84
2023-05-09T10:27:35.071Z,22.13
2023-05-09T10:30:07.763Z,22.21
2023-05-09T10:32:52.231Z,21.73
2023-05-09T10:35:19.936Z,21.83
2023-05-09T10:37:46.440Z,22.18
2023-05-09T10:40:15.739Z,21.85
2023-05-09T10:42:43.458Z,21.55
2023-05-09T10:45:11.218Z,21.30
2023-05-09T10:50:04.586Z,21.08
2023-05-09T10:52:34.226Z,21.24
2023-05-09T10:55:01.679Z,21.26
2023-05-09T10:57:29.077Z,20.95
2023-05-09T10:59:56.451Z,20.46
2023-05-09T11:02:29.132Z,20.92
2023-05-09T11:07:41.503Z,21.05
2023-05-09T11:10:09.279Z,21.04
2023-05-09T11:12:52.467Z,21.05
2023-05-09T11:15:18.944Z,20.99
2023-05-09T11:17:45.494Z,21.02
2023-05-09T11:20:12.036Z,21.45
2023-05-09T11:22:43.181Z,21.73
2023-05-09T11:25:13.794Z,21.82
2023-05-09T11:27:43.925Z,22.13
2023-05-09T11:30:11.999Z,21.73
2023-05-09T11:32:43.960Z,21.11
2023-05-09T11:35:15.358Z,21.34
2023-05-09T11:38:07.010Z,21.77
2023-05-09T11:40:34.241Z,21.77
2023-05-09T11:43:01.155Z,21.22
2023-05-09T11:45:29.441Z,21.52
2023-05-09T11:47:57.237Z,21.77
2023-05-09T11:50:23.948Z,22.20
2023-05-09T11:52:50.760Z,21.68
2023-05-09T11:55:19.095Z,22.03
2023-05-09T11:57:48.149Z,22.12
2023-05-09T12:00:19.175Z,22.52
2023-05-09T12:02:46.221Z,22.34
2023-05-09T12:05:14.564Z,21.88
2023-05-09T12:07:41.234Z,22.32
2023-05-09T12:10:13.165Z,21.41
2023-05-09T12:12:47.172Z,21.78
2023-05-09T12:15:14.173Z,21.73
2023-05-09T12:17:41.883Z,21.95
2023-05-09T12:20:08.941Z,22.06
2023-05-09T12:22:37.349Z,22.01
2023-05-09T12:25:08.578Z,21.38
2023-05-09T12:27:38.920Z,21.36
2023-05-09T12:30:10.210Z,21.23
2023-05-09T12:32:37.752Z,21.20
2023-05-09T12:35:04.423Z,20.95
2023-05-09T12:37:32.489Z,21.21
2023-05-09T12:40:06.144Z,21.32
2023-05-09T12:42:33.349Z,21.04
2023-05-09T12:45:01.538Z,21.01
2023-05-09T12:47:29.283Z,21.02
2023-05-09T12:49:59.464Z,21.04
2023-05-09T12:52:25.854Z,21.36
2023-05-09T12:54:52.939Z,21.29
2023-05-09T12:57:23.253Z,21.13
2023-05-09T12:59:49.794Z,21.09
2023-05-09T13:02:16.379Z,21.29
2023-05-09T13:04:42.924Z,21.20
2023-05-09T13:07:10.308Z,21.14
2023-05-09T13:09:37.008Z,20.95
2023-05-09T13:12:09.910Z,20.86
2023-05-09T13:14:36.443Z,20.67
2023-05-09T13:17:03.007Z,20.80
2023-05-09T13:19:29.948Z,21.11
2023-05-09T13:21:56.493Z,21.61
2023-05-09T13:24:22.989Z,22.15
2023-05-09T13:26:49.459Z,22.06
2023-05-09T13:29:15.954Z,21.84
2023-05-09T13:31:42.422Z,21.89
2023-05-09T13:34:08.924Z,21.73
2023-05-09T13:36:35.637Z,21.85
2023-05-09T13:39:02.128Z,22.28
2023-05-09T13:41:30.742Z,22.21
2023-05-09T13:43:57.218Z,22.34
2023-05-09T13:46:23.718Z,22.91
2023-05-09T13:48:50.255Z,22.64
2023-05-09T13:51:16.733Z,23.22
2023-05-09T13:53:43.220Z,23.46
2023-05-09T13:56:09.996Z,23.47
2023-05-09T13:58:36.771Z,22.49
2023-05-09T14:01:03.416Z,21.99
2023-05-09T14:03:29.962Z,21.84
2023-05-09T14:05:56.558Z,21.73
2023-05-09T14:08:23.184Z,21.93
2023-05-09T14:10:49.688Z,22.29
2023-05-09T14:13:16.237Z,23.03
2023-05-09T14:15:43.083Z,22.69
2023-05-09T14:18:09.672Z,22.52
2023-05-09T14:20:37.462Z,22.52
2023-05-09T14:23:04.037Z,22.27
2023-05-09T14:25:30.555Z,21.77
2023-05-09T14:27:57.959Z,21.45
2023-05-09T14:30:25.647Z,21.97
2023-05-09T14:32:52.208Z,22.01
2023-05-09T14:35:18.757Z,22.38
2023-05-09T14:37:45.576Z,22.06
2023-05-09T14:40:12.452Z,21.78
2023-05-09T14:42:39.021Z,21.43
2023-05-09T14:45:07.222Z,21.22
2023-05-09T14:47:34.314Z,20.96
2023-05-09T14:50:00.921Z,20.91
2023-05-09T14:52:28.731Z,21.18
2023-05-09T14:54:55.323Z,21.78
2023-05-09T14:57:22.305Z,22.05
2023-05-09T14:59:48.865Z,22.02
2023-05-09T15:02:15.353Z,22.10
2023-05-09T15:04:43.734Z,22.32
2023-05-09T15:07:10.422Z,22.35
2023-05-09T15:09:37.841Z,22.50
2023-05-09T15:12:04.381Z,22.48
2023-05-09T15:14:30.946Z,22.33
2023-05-09T15:16:59.946Z,22.03
2023-05-09T15:19:31.034Z,21.53
2023-05-09T15:22:00.638Z,21.61
2023-05-09T15:24:27.401Z,21.60
2023-05-09T15:26:54.252Z,21.52
2023-05-09T15:29:21.790Z,21.43
2023-05-09T15:31:48.796Z,21.50
2023-05-09T15:34:15.519Z,21.20
2023-05-09T15:36:42.032Z,21.03
2023-05-09T15:39:08.550Z,20.89
2023-05-09T15:41:35.056Z,20.78
2023-05-09T15:44:01.556Z,20.69
2023-05-09T15:46:28.323Z,20.74
2023-05-09T15:48:56.102Z,20.74
2023-05-09T15:51:22.699Z,20.77
2023-05-09T15:53:49.904Z,20.86
2023-05-09T15:56:16.414Z,20.65
2023-05-09T15:58:42.919Z,20.57
2023-05-09T16:01:12.848Z,20.49
2023-05-09T16:03:39.575Z,20.51
2023-05-09T16:06:06.274Z,20.45
2023-05-09T16:08:32.765Z,20.46
2023-05-09T16:11:00.875Z,20.47
2023-05-09T16:13:27.582Z,20.41
2023-05-09T16:15:54.180Z,20.36
2023-05-09T16:18:20.720Z,20.34
2023-05-09T16:20:47.207Z,20.19
2023-05-09T16:23:13.870Z,20.25
2023-05-09T16:25:40.363Z,20.33
2023-05-09T16:28:07.158Z,20.41
2023-05-09T16:30:33.785Z,20.51
2023-05-09T16:33:00.519Z,20.42
2023-05-09T16:35:27.142Z,20.48
2023-05-09T16:37:53.615Z,20.35
2023-05-09T16:40:20.457Z,20.37
2023-05-09T16:42:46.995Z,20.41
2023-05-09T16:45:13.488Z,20.47
2023-05-09T16:47:39.992Z,20.37
2023-05-09T16:50:07.369Z,20.32
2023-05-09T16:52:33.861Z,20.35
2023-05-09T16:55:00.452Z,20.38
2023-05-09T16:57:26.917Z,20.42
2023-05-09T16:59:53.520Z,20.40
2023-05-09T17:02:20.055Z,20.37
2023-05-09T17:04:46.666Z,20.46
2023-05-09T17:07:14.416Z,20.46
2023-05-09T17:09:41.091Z,20.52
2023-05-09T17:12:07.791Z,20.46
2023-05-09T17:14:34.315Z,20.43
2023-05-09T17:17:00.864Z,20.38
2023-05-09T17:19:27.378Z,20.34
2023-05-09T17:21:55.982Z,20.39
2023-05-09T17:24:22.475Z,20.38
2023-05-09T17:26:50.183Z,20.36
2023-05-09T17:29:16.690Z,20.29
2023-05-09T17:31:43.274Z,20.24
2023-05-09T17:34:09.766Z,20.15
2023-05-09T17:36:36.246Z,20.04
2023-05-09T17:39:02.727Z,20.09
2023-05-09T17:41:29.201Z,20.12
2023-05-09T17:43:58.280Z,19.97
2023-05-09T17:46:24.927Z,19.87
2023-05-09T17:48:51.630Z,19.89
2023-05-09T17:51:18.200Z,19.80
2023-05-09T17:53:44.979Z,19.73
2023-05-09T17:56:11.850Z,19.60
2023-05-09T17:58:38.423Z,19.64
2023-05-09T18:01:05.410Z,19.48
2023-05-09T18:03:32.380Z,19.50
2023-05-09T18:06:00.268Z,19.38
2023-05-09T18:08:26.850Z,19.36
2023-05-09T18:10:54.648Z,19.32
2023-05-09T18:13:24.243Z,19.16
2023-05-09T18:15:50.895Z,19.12
2023-05-09T18:18:17.474Z,19.02
2023-05-09T18:20:46.254Z,19.04
2023-05-09T18:23:14.448Z,18.93
2023-05-09T18:25:41.857Z,18.92
2023-05-09T18:28:08.364Z,18.89
2023-05-09T18:30:36.123Z,18.89
2023-05-09T18:33:02.709Z,18.76
2023-05-09T18:35:29.345Z,18.70
2023-05-09T18:37:55.870Z,18.66
2023-05-09T18:40:22.364Z,18.58
2023-05-09T18:42:48.828Z,18.52
2023-05-09T18:45:15.833Z,18.47
2023-05-09T18:47:42.371Z,18.41
2023-05-09T18:50:09.278Z,18.33
2023-05-09T18:52:35.780Z,18.27
2023-05-09T18:55:02.263Z,18.22
2023-05-09T18:57:29.109Z,18.18
2023-05-09T18:59:55.988Z,18.21
2023-05-09T19:02:23.515Z,18.13
2023-05-09T19:04:51.441Z,18.09
2023-05-09T19:07:17.991Z,17.99
2023-05-09T19:09:44.489Z,17.91
2023-05-09T19:12:10.958Z,17.83
2023-05-09T19:14:37.989Z,17.76
2023-05-09T19:17:05.587Z,17.75
2023-05-09T19:19:32.288Z,17.65
2023-05-09T19:21:58.765Z,17.64
2023-05-09T19:24:25.266Z,17.55
2023-05-09T19:26:51.758Z,17.43
2023-05-09T19:29:18.251Z,17.47
2023-05-09T19:31:45.132Z,17.47
2023-05-09T19:34:11.607Z,17.34
2023-05-09T19:36:38.114Z,17.25
2023-05-09T19:39:05.426Z,17.25
2023-05-09T19:41:32.152Z,17.28
2023-05-09T19:43:59.332Z,17.23
2023-05-09T19:46:25.892Z,17.20
2023-05-09T19:48:52.367Z,17.19
2023-05-09T19:51:19.024Z,17.14
2023-05-09T19:53:46.796Z,17.14
2023-05-09T19:56:13.768Z,17.15
2023-05-09T19:58:40.332Z,17.02
2023-05-09T20:01:07.232Z,17.01
2023-05-09T20:03:35.200Z,16.97
2023-05-09T20:06:02.364Z,16.96
2023-05-09T20:08:29.536Z,16.98
2023-05-09T20:10:57.302Z,16.94
2023-05-09T20:13:23.854Z,16.89
2023-05-09T20:15:50.419Z,16.85
2023-05-09T20:18:16.995Z,16.89
2023-05-09T20:20:43.457Z,16.75
2023-05-09T20:23:10.034Z,16.81
2023-05-09T20:25:36.540Z,16.55
2023-05-09T20:28:03.081Z,16.36
2023-05-09T20:30:29.572Z,16.28
2023-05-09T20:32:58.446Z,16.22
2023-05-09T20:35:25.052Z,16.10
2023-05-09T20:37:51.559Z,16.11
2023-05-09T20:40:18.178Z,16.25
2023-05-09T20:42:44.789Z,16.47
2023-05-09T20:45:11.376Z,16.42
2023-05-09T20:47:39.428Z,16.50
2023-05-09T20:50:06.744Z,16.59
2023-05-09T20:52:33.225Z,16.40
2023-05-09T20:54:59.699Z,16.40
2023-05-09T20:57:26.241Z,16.75
2023-05-09T20:59:52.726Z,16.69
2023-05-09T21:02:19.259Z,16.54
2023-05-09T21:04:45.761Z,16.53
2023-05-09T21:07:12.545Z,16.50
2023-05-09T21:09:39.076Z,16.51
2023-05-09T21:12:05.708Z,16.28
2023-05-09T21:14:32.277Z,16.24
2023-05-09T21:16:58.803Z,16.21
2023-05-09T21:19:25.337Z,16.17
2023-05-09T21:21:51.825Z,16.12
2023-05-09T21:24:18.316Z,16.11
2023-05-09T21:26:44.795Z,16.09
2023-05-09T21:29:11.357Z,16.08
2023-05-09T21:31:37.985Z,16.05
2023-05-09T21:34:09.826Z,16.03
2023-05-09T21:36:38.321Z,15.89
2023-05-09T21:39:10.821Z,15.83
2023-05-09T21:41:38.072Z,15.84
2023-05-09T21:44:04.780Z,15.84
2023-05-09T21:46:31.989Z,15.79
2023-05-09T21:48:59.374Z,15.78
2023-05-09T21:51:25.888Z,15.82
2023-05-09T21:53:52.386Z,15.74
2023-05-09T21:56:18.870Z,15.70
2023-05-09T21:58:45.397Z,15.55
2023-05-09T22:01:11.871Z,15.51
2023-05-09T22:03:38.408Z,15.46
2023-05-09T22:06:05.019Z,15.41
2023-05-09T22:08:31.506Z,15.35
2023-05-09T22:10:57.993Z,15.35
2023-05-09T22:13:24.530Z,15.33
2023-05-09T22:15:51.134Z,15.30
2023-05-09T22:18:17.606Z,15.26
2023-05-09T22:20:44.206Z,15.26
2023-05-09T22:23:10.680Z,15.24
2023-05-09T22:25:37.162Z,15.13
2023-05-09T22:28:03.832Z,15.20
2023-05-09T22:30:30.361Z,15.18
2023-05-09T22:32:58.653Z,15.21
2023-05-09T22:35:25.538Z,15.21
2023-05-09T22:37:52.011Z,15.22
2023-05-09T22:40:18.553Z,15.21
2023-05-09T22:42:45.084Z,15.22
2023-05-09T22:45:11.560Z,15.23
2023-05-09T22:47:38.194Z,15.20
2023-05-09T22:50:05.054Z,15.13
2023-05-09T22:52:31.619Z,15.20
2023-05-09T22:54:58.164Z,15.31
2023-05-09T22:57:24.629Z,15.25
2023-05-09T22:59:51.207Z,15.21
2023-05-09T23:02:17.728Z,15.18
2023-05-09T23:04:44.241Z,15.20
2023-05-09T23:07:10.807Z,15.26
2023-05-09T23:09:37.309Z,15.19
2023-05-09T23:12:04.348Z,15.23
2023-05-09T23:14:31.371Z,15.17
2023-05-09T23:16:57.945Z,15.14
2023-05-09T23:19:24.416Z,15.09
2023-05-09T23:21:50.990Z,15.12
2023-05-09T23:24:17.524Z,15.12
2023-05-09T23:26:43.997Z,15.14
2023-05-09T23:29:10.471Z,15.08
2023-05-09T23:31:37.050Z,15.12
2023-05-09T23:34:03.565Z,15.13
2023-05-09T23:36:30.075Z,15.13
2023-05-09T23:38:56.599Z,15.20
2023-05-09T23:41:23.084Z,15.05
2023-05-09T23:43:49.550Z,15.27
2023-05-09T23:46:16.066Z,15.10
2023-05-09T23:48:42.580Z,14.89
2023-05-09T23:51:09.086Z,14.77
2023-05-09T23:53:35.574Z,14.93
2023-05-09T23:56:02.825Z,14.84
2023-05-09T23:58:29.345Z,14.75
